Aérodrome :
LOGIN :

S'inscrire | Disclaimer

   EN    FR    IT 

 










Légende :    VFR   VFR Marginal   IFR   IFR Intensif   IFR Très Intensif
Visi : 
Plafond : 
>= 8 km
>= 3000ft
5 à 8 km
1000 à 3000 ft
1500m à 5 km
500 à 1000 ft
800 à 1500m
200 à 500 ft
< 800m
< 200 ft
Symboles :   Orages  Brouillard  Fortes neiges  Fortes précipitations  Vent > 20 kt
SIGMETs :   Divers  Orages  Givrage  Turbulence  Onde Orograph.  Cendres Volcan.






- Altitude de l'aérodrome : 0 ft


ENOA - Oseberg A Platform

DERNIER METAR :
  • 200820Z 02026KT 9999 SCT017 10/06 Q1009 W///S5

METARs EXPIRÉS :
  • 200750Z 01025KT 9999 SCT015 10/07 Q1008 W///S5
  • 200720Z 01023KT 9999 SCT015 10/07 Q1008 W///S5
  • 200650Z 01024KT 9999 SCT015 10/07 Q1007 W///S5
  • 200620Z 01024KT 9999 FEW015 10/07 Q1007 W///S5
  • 200550Z 01023KT CAVOK 10/07 Q1007 W///S5

TAF ENOA
Valide du 20 à 06h jusqu'au 21 à 06h UTC


2006/2106 02020KT 9999 FEW012 SCT035
BECMG 2011/2013 01030KT
BECMG 2022/2024 36018KT
BECMG 2103/2106 30015KT



MET'MAP, la Météo Aéronautique d'un coup d'oeil ! - Copyright ORBIFLY Décembre 2007 - Disclaimer

ORBIFLY MET'MAP TEAM :

Programmation & Développement : Alexandra Zaïnal
Conception & Développement : Baudouin d'Aumeries
Co-Programmation & Développement : Marc-Olivier Méhu
Soutien technique & logistique : Manuel Goepfert

Contact : metmap@orbifly.com




SOURCES & CREDITS :

   NOAA